createdAt,value
2018-09-22T00:01:01.581Z,92493.56
2018-09-22T00:03:37.423Z,92490.22
2018-09-22T00:06:13.340Z,92490.64
2018-09-22T00:08:49.192Z,92488.30
2018-09-22T00:11:25.033Z,92495.61
2018-09-22T00:14:00.904Z,92494.74
2018-09-22T00:16:36.799Z,92495.58
2018-09-22T00:19:12.712Z,92496.41
2018-09-22T00:21:48.660Z,92497.56
2018-09-22T00:24:24.885Z,92493.53
2018-09-22T00:27:00.654Z,92496.42
2018-09-22T00:29:36.629Z,92492.24
2018-09-22T00:32:12.477Z,92498.22
2018-09-22T00:34:48.346Z,92489.45
2018-09-22T00:37:24.269Z,92488.22
2018-09-22T00:40:00.099Z,92488.48
2018-09-22T00:42:36.071Z,92484.00
2018-09-22T00:45:12.025Z,92482.59
2018-09-22T00:47:48.194Z,92482.89
2018-09-22T00:50:24.240Z,92483.07
2018-09-22T00:53:00.045Z,92474.25
2018-09-22T00:55:36.020Z,92475.55
2018-09-22T00:58:11.906Z,92473.76
2018-09-22T01:00:47.835Z,92477.65
2018-09-22T01:03:23.640Z,92470.76
2018-09-22T01:05:59.509Z,92466.05
2018-09-22T01:08:35.306Z,92472.19
2018-09-22T01:11:11.112Z,92475.92
2018-09-22T01:13:46.958Z,92476.31
2018-09-22T01:16:22.928Z,92476.41
2018-09-22T01:18:58.718Z,92483.09
2018-09-22T01:21:35.020Z,92482.30
2018-09-22T01:24:16.620Z,92482.84
2018-09-22T01:26:52.519Z,92488.08
2018-09-22T01:29:28.425Z,92487.77
2018-09-22T01:32:04.324Z,92487.86
2018-09-22T01:34:40.082Z,92487.81
2018-09-22T01:37:15.952Z,92489.03
2018-09-22T01:39:51.734Z,92490.10
2018-09-22T01:42:27.696Z,92489.28
2018-09-22T01:45:03.815Z,92486.95
2018-09-22T01:47:39.669Z,92495.52
2018-09-22T01:50:15.486Z,92495.63
2018-09-22T01:52:51.337Z,92487.36
2018-09-22T01:55:27.281Z,92489.11
2018-09-22T01:58:03.283Z,92481.44
2018-09-22T02:00:39.363Z,92485.28
2018-09-22T02:03:15.318Z,92478.46
2018-09-22T02:05:51.268Z,92484.05
2018-09-22T02:08:27.116Z,92484.23
2018-09-22T02:11:02.991Z,92481.90
2018-09-22T02:13:38.942Z,92482.99
2018-09-22T02:16:14.862Z,92487.03
2018-09-22T02:18:50.744Z,92492.61
2018-09-22T02:21:26.662Z,92483.28
2018-09-22T02:24:02.568Z,92485.95
2018-09-22T02:26:38.404Z,92487.56
2018-09-22T02:29:14.429Z,92495.83
2018-09-22T02:31:50.277Z,92498.28
2018-09-22T02:34:26.220Z,92499.89
2018-09-22T02:37:02.296Z,92496.67
2018-09-22T02:39:38.327Z,92494.44
2018-09-22T02:42:14.243Z,92494.27
2018-09-22T02:44:50.178Z,92484.34
2018-09-22T02:47:26.156Z,92480.69
2018-09-22T02:50:02.137Z,92477.02
2018-09-22T02:52:38.470Z,92484.56
2018-09-22T02:55:14.439Z,92484.69
2018-09-22T02:57:50.395Z,92488.45
2018-09-22T03:00:26.353Z,92490.16
2018-09-22T03:03:02.288Z,92489.88
2018-09-22T03:05:38.185Z,92486.52
2018-09-22T03:08:14.134Z,92486.41
2018-09-22T03:10:50.107Z,92492.04
2018-09-22T03:13:25.920Z,92487.68
2018-09-22T03:16:01.839Z,92488.21
2018-09-22T03:18:37.504Z,92485.74
2018-09-22T03:21:13.427Z,92473.09
2018-09-22T03:23:49.406Z,92482.72
2018-09-22T03:26:25.284Z,92480.34
2018-09-22T03:29:01.191Z,92490.32
2018-09-22T03:31:37.378Z,92499.70
2018-09-22T03:34:13.390Z,92503.58
2018-09-22T03:36:49.341Z,92504.45
2018-09-22T03:39:25.258Z,92500.99
2018-09-22T03:42:01.308Z,92498.26
2018-09-22T03:44:37.240Z,92493.17
2018-09-22T03:47:13.251Z,92491.31
2018-09-22T03:49:49.236Z,92494.44
2018-09-22T03:52:25.162Z,92494.16
2018-09-22T03:55:03.610Z,92493.66
2018-09-22T03:57:39.640Z,92493.89
2018-09-22T04:00:15.487Z,92483.92
2018-09-22T04:02:51.359Z,92489.20
2018-09-22T04:05:27.151Z,92490.16
2018-09-22T04:08:04.985Z,92493.22
2018-09-22T04:10:41.394Z,92482.81
2018-09-22T04:13:17.455Z,92484.39
2018-09-22T04:15:53.381Z,92481.17
2018-09-22T04:18:29.229Z,92487.14
2018-09-22T04:21:05.149Z,92487.36
2018-09-22T04:23:41.012Z,92494.48
2018-09-22T04:26:16.787Z,92489.44
2018-09-22T04:28:52.686Z,92491.36
2018-09-22T04:31:28.670Z,92492.28
2018-09-22T04:34:04.797Z,92497.06
2018-09-22T04:36:40.807Z,92500.64
2018-09-22T04:39:16.773Z,92498.96
2018-09-22T04:41:52.725Z,92502.03
2018-09-22T04:44:29.117Z,92498.19
2018-09-22T04:47:05.989Z,92501.84
2018-09-22T04:49:41.984Z,92494.89
2018-09-22T04:52:17.949Z,92488.81
2018-09-22T04:54:53.910Z,92495.16
2018-09-22T04:57:29.735Z,92493.81
2018-09-22T05:00:06.032Z,92486.23
2018-09-22T05:02:41.890Z,92487.83
2018-09-22T05:05:17.920Z,92484.08
2018-09-22T05:07:53.866Z,92483.55
2018-09-22T05:11:53.728Z,92483.81
2018-09-22T05:14:29.635Z,92482.80
2018-09-22T05:17:05.614Z,92485.95
2018-09-22T05:19:41.701Z,92488.32
2018-09-22T05:22:17.668Z,92491.58
2018-09-22T05:24:53.687Z,92493.31
2018-09-22T05:27:29.954Z,92497.48
2018-09-22T05:30:06.357Z,92498.73
2018-09-22T05:32:44.933Z,92494.15
2018-09-22T05:35:20.737Z,92499.54
2018-09-22T05:37:57.736Z,92494.23
2018-09-22T05:40:33.570Z,92491.61
2018-09-22T05:43:09.457Z,92492.47
2018-09-22T05:45:45.449Z,92488.93
2018-09-22T05:48:21.446Z,92480.48
2018-09-22T05:50:57.450Z,92488.69
2018-09-22T05:53:33.443Z,92482.41
2018-09-22T05:56:09.489Z,92479.61
2018-09-22T05:58:45.467Z,92481.09
2018-09-22T06:01:21.270Z,92483.10
2018-09-22T06:03:57.329Z,92479.93
2018-09-22T06:06:33.384Z,92476.69
2018-09-22T06:09:10.370Z,92480.08
2018-09-22T06:11:46.294Z,92491.16
2018-09-22T06:14:22.383Z,92491.38
2018-09-22T06:16:58.336Z,92495.39
2018-09-22T06:19:34.222Z,92503.31
2018-09-22T06:22:10.208Z,92498.26
2018-09-22T06:24:46.222Z,92499.11
2018-09-22T06:27:22.178Z,92492.57
2018-09-22T06:29:58.014Z,92498.78
2018-09-22T06:32:33.905Z,92503.59
2018-09-22T06:35:09.784Z,92497.86
2018-09-22T06:37:45.743Z,92500.94
2018-09-22T06:40:21.666Z,92505.41
2018-09-22T06:42:57.563Z,92500.37
2018-09-22T06:45:33.520Z,92504.37
2018-09-22T06:48:09.786Z,92501.34
2018-09-22T06:50:45.920Z,92496.11
2018-09-22T06:53:22.700Z,92504.91
2018-09-22T06:55:58.856Z,92503.43
2018-09-22T06:58:34.901Z,92512.56
2018-09-22T07:01:10.820Z,92508.98
2018-09-22T07:03:47.175Z,92506.55
2018-09-22T07:06:23.022Z,92507.66
2018-09-22T07:08:59.234Z,92503.38
2018-09-22T07:11:35.318Z,92501.30
2018-09-22T07:14:11.324Z,92508.32
2018-09-22T07:16:47.694Z,92508.28
2018-09-22T07:19:23.662Z,92497.50
2018-09-22T07:22:04.625Z,92501.06
2018-09-22T07:24:40.605Z,92494.70
2018-09-22T07:27:16.737Z,92492.45
2018-09-22T07:29:52.981Z,92495.72
2018-09-22T07:32:28.879Z,92495.77
2018-09-22T07:35:04.838Z,92497.48
2018-09-22T07:44:49.423Z,92497.91
2018-09-22T07:47:25.262Z,92494.80
2018-09-22T07:50:01.168Z,92486.50
2018-09-22T07:52:37.157Z,92484.34
2018-09-22T07:55:13.129Z,92484.83
2018-09-22T07:57:49.237Z,92477.28
2018-09-22T08:00:25.352Z,92477.28
2018-09-22T08:03:01.375Z,92473.84
2018-09-22T08:05:37.184Z,92462.30
2018-09-22T08:08:12.977Z,92462.34
2018-09-22T08:10:48.886Z,92462.18
2018-09-22T08:14:49.027Z,92454.64
2018-09-22T08:17:25.127Z,92452.25
2018-09-22T08:20:01.041Z,92435.88
2018-09-22T08:22:36.965Z,92440.11
2018-09-22T08:25:13.234Z,92434.06
2018-09-22T08:27:49.459Z,92434.34
2018-09-22T08:30:25.254Z,92433.48
2018-09-22T08:33:01.434Z,92431.98
2018-09-22T08:35:37.769Z,92430.27
2018-09-22T08:38:13.797Z,92430.88
2018-09-22T08:40:49.632Z,92427.84
2018-09-22T08:43:25.530Z,92428.67
2018-09-22T08:46:01.472Z,92420.25
2018-09-22T08:48:37.503Z,92421.66
2018-09-22T08:51:13.499Z,92414.94
2018-09-22T08:53:49.710Z,92413.55
2018-09-22T08:56:25.640Z,92415.62
2018-09-22T08:59:01.751Z,92414.12
2018-09-22T09:01:37.566Z,92406.07
2018-09-22T09:04:13.533Z,92410.18
2018-09-22T09:06:49.352Z,92400.42
2018-09-22T09:09:25.225Z,92402.55
2018-09-22T09:12:01.016Z,92405.75
2018-09-22T09:14:36.855Z,92402.98
2018-09-22T09:17:13.089Z,92397.53
2018-09-22T09:19:49.232Z,92389.44
2018-09-22T09:22:25.096Z,92387.94
2018-09-22T09:25:01.051Z,92381.83
2018-09-22T09:27:37.105Z,92371.28
2018-09-22T09:30:13.373Z,92374.03
2018-09-22T09:32:49.187Z,92371.34
2018-09-22T09:35:25.120Z,92365.02
2018-09-22T09:38:01.210Z,92364.48
2018-09-22T09:40:37.266Z,92365.39
2018-09-22T09:43:13.080Z,92360.72
2018-09-22T09:45:49.036Z,92359.83
2018-09-22T09:48:24.863Z,92361.97
2018-09-22T09:51:00.777Z,92359.38
2018-09-22T09:53:36.795Z,92357.91
2018-09-22T09:56:12.789Z,92350.35
2018-09-22T09:58:48.689Z,92349.48
2018-09-22T10:01:24.799Z,92344.83
2018-09-22T10:04:00.615Z,92340.95
2018-09-22T10:06:36.601Z,92339.56
2018-09-22T10:09:12.581Z,92345.12
2018-09-22T10:11:48.750Z,92349.00
2018-09-22T10:14:24.901Z,92345.64
2018-09-22T10:17:00.806Z,92344.28
2018-09-22T10:19:35.515Z,92351.46
2018-09-22T10:22:06.924Z,92332.28
2018-09-22T10:24:37.798Z,92336.14
2018-09-22T10:27:09.128Z,92337.83
2018-09-22T10:29:39.953Z,92333.38
2018-09-22T10:32:10.850Z,92337.08
2018-09-22T10:34:41.704Z,92323.80
2018-09-22T10:37:12.946Z,92323.20
2018-09-22T10:39:43.811Z,92318.48
2018-09-22T10:42:15.091Z,92319.00
2018-09-22T10:44:46.193Z,92313.72
2018-09-22T10:47:17.130Z,92315.25
2018-09-22T10:49:48.009Z,92315.55
2018-09-22T10:52:18.989Z,92309.15
2018-09-22T10:54:49.879Z,92301.86
2018-09-22T10:57:20.761Z,92303.45
2018-09-22T10:59:51.591Z,92304.84
2018-09-22T11:02:22.615Z,92298.84
2018-09-22T11:04:53.459Z,92303.28
2018-09-22T11:07:24.433Z,92298.05
2018-09-22T11:09:55.293Z,92292.16
2018-09-22T11:12:26.217Z,92296.98
2018-09-22T11:14:57.055Z,92291.65
2018-09-22T11:17:27.944Z,92284.84
2018-09-22T11:19:58.783Z,92276.71
2018-09-22T11:22:29.719Z,92287.31
2018-09-22T11:26:24.853Z,92290.99
2018-09-22T11:28:56.400Z,92284.27
2018-09-22T11:31:27.390Z,92278.17
2018-09-22T11:33:58.437Z,92281.09
2018-09-22T11:36:29.291Z,92276.03
2018-09-22T11:39:00.282Z,92277.31
2018-09-22T11:41:31.162Z,92268.33
2018-09-22T11:44:02.155Z,92278.94
2018-09-22T11:46:33.063Z,92269.30
2018-09-22T11:49:03.981Z,92266.59
2018-09-22T11:51:34.864Z,92265.89
2018-09-22T11:54:05.802Z,92271.61
2018-09-22T11:56:36.777Z,92264.75
2018-09-22T11:59:20.475Z,92264.97
2018-09-22T12:01:51.406Z,92256.72
2018-09-22T12:04:22.660Z,92253.41
2018-09-22T12:06:53.530Z,92249.86
2018-09-22T12:09:24.520Z,92255.41
2018-09-22T12:11:55.404Z,92245.02
2018-09-22T12:14:26.358Z,92242.83
2018-09-22T12:16:57.206Z,92246.30
2018-09-22T12:19:28.130Z,92237.88
2018-09-22T12:21:58.990Z,92241.44
2018-09-22T12:24:29.993Z,92248.93
2018-09-22T12:27:00.845Z,92249.45
2018-09-22T12:29:31.803Z,92243.34
2018-09-22T12:32:03.072Z,92247.67
2018-09-22T12:34:35.167Z,92248.06
2018-09-22T12:37:06.112Z,92250.66
2018-09-22T12:39:37.050Z,92248.61
2018-09-22T12:42:07.993Z,92241.98
2018-09-22T12:44:39.756Z,92248.41
2018-09-22T12:47:10.582Z,92239.48
2018-09-22T12:49:41.535Z,92247.14
2018-09-22T12:52:12.498Z,92243.25
2018-09-22T12:54:43.412Z,92242.81
2018-09-22T12:57:14.281Z,92240.06
2018-09-22T12:59:45.228Z,92239.38
2018-09-22T13:02:16.080Z,92233.72
2018-09-22T13:04:47.088Z,92237.91
2018-09-22T13:07:18.031Z,92236.02
2018-09-22T13:09:48.930Z,92237.31
2018-09-22T13:12:19.819Z,92237.33
2018-09-22T13:14:50.754Z,92234.38
2018-09-22T13:17:21.624Z,92226.91
2018-09-22T13:19:52.543Z,92226.30
2018-09-22T13:22:23.846Z,92225.00
2018-09-22T13:24:54.905Z,92218.00
2018-09-22T13:27:25.757Z,92224.81
2018-09-22T13:29:56.717Z,92225.00
2018-09-22T13:32:27.582Z,92229.17
2018-09-22T13:34:58.501Z,92221.53
2018-09-22T13:37:29.352Z,92230.12
2018-09-22T13:40:00.270Z,92221.92
2018-09-22T13:42:31.135Z,92223.21
2018-09-22T13:45:02.093Z,92223.47
2018-09-22T13:47:32.953Z,92226.34
2018-09-22T13:50:04.290Z,92225.52
2018-09-22T13:52:35.188Z,92216.16
2018-09-22T13:58:39.753Z,92221.20
2018-09-22T14:01:11.111Z,92225.97
2018-09-22T14:03:42.016Z,92217.87
2018-09-22T14:06:13.703Z,92222.27
2018-09-22T14:08:46.242Z,92220.12
2018-09-22T14:11:17.123Z,92223.42
2018-09-22T14:13:47.979Z,92217.53
2018-09-22T14:16:18.923Z,92223.47
2018-09-22T14:18:49.789Z,92222.55
2018-09-22T14:21:21.634Z,92227.20
2018-09-22T14:23:53.014Z,92227.78
2018-09-22T14:26:23.922Z,92228.06
2018-09-22T14:28:54.775Z,92225.18
2018-09-22T14:31:25.754Z,92232.17
2018-09-22T14:33:56.772Z,92224.83
2018-09-22T14:36:31.304Z,92222.20
2018-09-22T14:39:02.231Z,92223.64
2018-09-22T14:41:33.164Z,92224.84
2018-09-22T14:44:04.432Z,92227.34
2018-09-22T14:46:35.550Z,92226.31
2018-09-22T14:49:06.403Z,92228.70
2018-09-22T14:51:37.301Z,92224.95
2018-09-22T14:54:08.159Z,92226.08
2018-09-22T14:56:39.066Z,92225.20
2018-09-22T14:59:09.965Z,92225.69
2018-09-22T15:01:41.424Z,92226.89
2018-09-22T15:04:16.930Z,92226.75
2018-09-22T15:06:47.992Z,92227.87
2018-09-22T15:09:19.285Z,92219.86
2018-09-22T15:11:50.374Z,92219.55
2018-09-22T15:14:28.897Z,92220.55
2018-09-22T15:17:01.763Z,92225.20
2018-09-22T15:19:32.809Z,92222.95
2018-09-22T15:22:04.440Z,92228.34
2018-09-22T15:24:35.414Z,92226.91
2018-09-22T15:27:06.408Z,92229.49
2018-09-22T15:29:37.274Z,92235.02
2018-09-22T15:32:15.066Z,92232.73
2018-09-22T15:34:46.996Z,92239.39
2018-09-22T15:37:18.032Z,92245.28
2018-09-22T15:39:48.879Z,92245.86
2018-09-22T15:42:20.565Z,92254.02
2018-09-22T15:44:52.717Z,92253.97
2018-09-22T15:47:23.606Z,92264.37
2018-09-22T15:49:58.176Z,92269.42
2018-09-22T15:52:29.118Z,92272.75
2018-09-22T15:54:59.959Z,92275.03
2018-09-22T15:57:30.884Z,92274.38
2018-09-22T16:00:01.735Z,92265.81
2018-09-22T16:02:32.630Z,92264.58
2018-09-22T16:05:03.510Z,92262.61
2018-09-22T16:07:35.819Z,92265.23
2018-09-22T16:10:06.771Z,92270.28
2018-09-22T16:12:37.699Z,92266.89
2018-09-22T16:15:08.606Z,92263.27
2018-09-22T16:17:39.925Z,92266.81
2018-09-22T16:20:10.779Z,92269.23
2018-09-22T16:22:41.738Z,92270.46
2018-09-22T16:25:12.616Z,92271.81
2018-09-22T16:27:43.535Z,92287.09
2018-09-22T16:30:14.401Z,92295.39
2018-09-22T16:32:45.325Z,92298.20
2018-09-22T16:35:16.365Z,92298.16
2018-09-22T16:37:47.845Z,92297.59
2018-09-22T16:40:18.782Z,92292.86
2018-09-22T16:42:50.487Z,92294.22
2018-09-22T16:45:21.347Z,92301.25
2018-09-22T16:47:52.247Z,92305.59
2018-09-22T16:50:25.773Z,92295.58
2018-09-22T16:52:57.168Z,92310.89
2018-09-22T16:55:28.040Z,92319.33
2018-09-22T16:57:58.985Z,92330.97
2018-09-22T17:00:29.835Z,92333.09
2018-09-22T17:03:00.748Z,92339.34
2018-09-22T17:05:31.775Z,92346.14
2018-09-22T17:08:02.769Z,92351.41
2018-09-22T17:10:33.625Z,92351.34
2018-09-22T17:13:04.530Z,92353.17
2018-09-22T17:15:35.553Z,92356.34
2018-09-22T17:18:06.480Z,92362.16
2018-09-22T17:20:37.325Z,92366.86
2018-09-22T17:23:08.321Z,92367.02
2018-09-22T17:25:39.169Z,92361.56
2018-09-22T17:28:10.298Z,92366.49
2018-09-22T17:30:41.163Z,92365.39
2018-09-22T17:33:12.051Z,92380.05
2018-09-22T17:35:42.915Z,92383.08
2018-09-22T17:38:13.914Z,92388.20
2018-09-22T17:40:44.854Z,92394.45
2018-09-22T17:43:15.802Z,92401.49
2018-09-22T17:45:47.236Z,92404.84
2018-09-22T17:48:18.281Z,92414.89
2018-09-22T17:50:49.303Z,92414.70
2018-09-22T17:53:20.332Z,92422.10
2018-09-22T17:55:51.388Z,92427.45
2018-09-22T17:58:22.324Z,92431.36
2018-09-22T18:00:53.361Z,92438.25
2018-09-22T18:03:24.380Z,92437.33
2018-09-22T18:05:55.237Z,92445.48
2018-09-22T18:08:27.264Z,92453.33
2018-09-22T18:10:58.214Z,92455.29
2018-09-22T18:13:29.136Z,92456.32
2018-09-22T18:16:00.002Z,92451.43
2018-09-22T18:18:30.924Z,92463.31
2018-09-22T18:21:01.783Z,92462.16
2018-09-22T18:23:32.744Z,92471.08
2018-09-22T18:26:03.827Z,92468.67
2018-09-22T18:28:39.427Z,92468.09
2018-09-22T18:31:10.369Z,92472.39
2018-09-22T18:33:41.275Z,92474.95
2018-09-22T18:36:12.191Z,92476.70
2018-09-22T18:38:43.233Z,92475.26
2018-09-22T18:41:14.081Z,92476.60
2018-09-22T18:43:45.008Z,92479.17
2018-09-22T18:46:15.934Z,92470.26
2018-09-22T18:48:46.850Z,92474.92
2018-09-22T18:51:17.948Z,92474.14
2018-09-22T18:53:49.637Z,92476.55
2018-09-22T18:56:22.306Z,92470.33
2018-09-22T18:58:54.040Z,92476.34
2018-09-22T19:01:25.008Z,92471.39
2018-09-22T19:03:55.916Z,92462.41
2018-09-22T19:06:26.785Z,92464.06
2018-09-22T19:08:57.754Z,92470.85
2018-09-22T19:11:28.623Z,92469.20
2018-09-22T19:14:05.790Z,92472.42
2018-09-22T19:16:48.609Z,92473.06
2018-09-22T19:19:23.580Z,92480.45
2018-09-22T19:22:00.161Z,92489.20
2018-09-22T19:24:34.420Z,92495.98
2018-09-22T19:27:08.883Z,92503.23
2018-09-22T19:29:43.739Z,92499.24
2018-09-22T19:32:17.944Z,92505.20
2018-09-22T19:35:06.857Z,92503.71
2018-09-22T19:37:48.433Z,92518.80
2018-09-22T19:40:24.337Z,92519.13
2018-09-22T19:42:59.804Z,92530.89
2018-09-22T19:45:35.094Z,92536.89
2018-09-22T19:48:12.646Z,92539.61
2018-09-22T19:50:48.920Z,92542.52
2018-09-22T19:53:20.283Z,92537.78
2018-09-22T19:55:51.338Z,92544.27
2018-09-22T19:58:22.307Z,92549.10
2018-09-22T20:00:58.519Z,92549.83
2018-09-22T20:03:34.327Z,92559.00
2018-09-22T20:06:10.277Z,92563.13
2018-09-22T20:08:50.157Z,92562.37
2018-09-22T20:11:27.928Z,92564.92
2018-09-22T20:14:03.729Z,92566.91
2018-09-22T20:16:39.699Z,92560.49
2018-09-22T20:19:15.548Z,92564.05
2018-09-22T20:21:51.396Z,92563.67
2018-09-22T20:24:27.244Z,92562.85
2018-09-22T20:27:03.195Z,92571.17
2018-09-22T20:29:39.021Z,92564.73
2018-09-22T20:32:14.861Z,92562.24
2018-09-22T20:34:50.704Z,92568.48
2018-09-22T20:37:26.559Z,92564.20
2018-09-22T20:40:02.571Z,92569.16
2018-09-22T20:42:39.103Z,92567.66
2018-09-22T20:45:15.106Z,92572.20
2018-09-22T20:47:51.251Z,92574.03
2018-09-22T20:50:29.163Z,92579.17
2018-09-22T20:53:09.513Z,92571.57
2018-09-22T20:55:45.697Z,92570.14
2018-09-22T20:58:21.675Z,92581.20
2018-09-22T21:00:57.638Z,92578.83
2018-09-22T21:03:33.952Z,92582.16
2018-09-22T21:06:10.050Z,92594.22
2018-09-22T21:08:45.822Z,92593.80
2018-09-22T21:11:21.854Z,92598.18
2018-09-22T21:13:57.784Z,92601.89
2018-09-22T21:16:33.795Z,92589.53
2018-09-22T21:19:09.925Z,92589.77
2018-09-22T21:21:45.913Z,92586.54
2018-09-22T21:24:21.852Z,92584.80
2018-09-22T21:26:57.924Z,92583.21
2018-09-22T21:29:36.473Z,92583.33
2018-09-22T21:32:12.318Z,92582.02
2018-09-22T21:34:48.308Z,92579.13
2018-09-22T21:37:24.133Z,92587.21
2018-09-22T21:40:00.126Z,92588.52
2018-09-22T21:42:36.162Z,92597.03
2018-09-22T21:45:12.193Z,92603.11
2018-09-22T21:47:48.030Z,92605.71
2018-09-22T21:50:24.046Z,92614.58
2018-09-22T21:53:00.004Z,92622.45
2018-09-22T21:55:35.864Z,92629.58
2018-09-22T21:58:11.740Z,92625.30
2018-09-22T22:00:51.624Z,92619.66
2018-09-22T22:03:27.619Z,92616.39
2018-09-22T22:06:03.884Z,92613.86
2018-09-22T22:08:40.376Z,92606.69
2018-09-22T22:11:16.470Z,92603.79
2018-09-22T22:13:52.478Z,92620.31
2018-09-22T22:16:28.462Z,92621.92
2018-09-22T22:19:05.033Z,92624.31
2018-09-22T22:21:41.007Z,92624.02
2018-09-22T22:24:17.558Z,92619.98
2018-09-22T22:26:55.231Z,92615.70
2018-09-22T22:29:31.113Z,92605.42
2018-09-22T22:32:07.761Z,92605.15
2018-09-22T22:34:43.488Z,92605.38
2018-09-22T22:37:19.970Z,92604.88
2018-09-22T22:39:55.967Z,92604.47
2018-09-22T22:42:31.837Z,92599.09
2018-09-22T22:45:07.749Z,92598.62
2018-09-22T22:47:43.906Z,92596.73
2018-09-22T22:50:24.250Z,92596.53
2018-09-22T22:53:00.117Z,92594.13
2018-09-22T22:55:36.161Z,92601.50
2018-09-22T22:58:14.066Z,92605.27
2018-09-22T23:00:50.126Z,92605.61
2018-09-22T23:03:26.117Z,92606.64
2018-09-22T23:06:06.708Z,92613.14
2018-09-22T23:08:42.919Z,92616.42
2018-09-22T23:11:18.842Z,92618.14
2018-09-22T23:13:54.889Z,92624.53
2018-09-22T23:16:30.823Z,92631.20
2018-09-22T23:19:06.791Z,92637.32
2018-09-22T23:21:43.792Z,92635.56
2018-09-22T23:24:20.100Z,92634.61
2018-09-22T23:26:56.028Z,92636.33
2018-09-22T23:29:32.007Z,92640.86
2018-09-22T23:32:08.861Z,92637.13
2018-09-22T23:34:45.024Z,92644.61
2018-09-22T23:37:20.781Z,92642.13
2018-09-22T23:39:57.095Z,92639.20
2018-09-22T23:42:32.980Z,92635.88
2018-09-22T23:45:08.941Z,92637.30
2018-09-22T23:47:44.770Z,92638.57
2018-09-22T23:50:20.891Z,92630.41
2018-09-22T23:52:56.847Z,92636.27
2018-09-22T23:55:32.738Z,92632.77
2018-09-22T23:58:08.685Z,92633.56
